Time;durP1;ratioP1;P1;durP2;ratioP2;P2;SDS_P1;SDS_P2;PMS_P1;PMS_P2;Temp;Humidity;BMP_temperature;BMP_pressure;BME280_temperature;BME280_humidity;BME280_pressure;Samples;Min_cycle;Max_cycle;Signal;HPM_P1;HPM_P2
2021/07/12 00:00:18;;;;;;;1.47;1.00;;;15.30;98.00;;;;;;5114016;28;20451;-66
2021/07/12 00:02:48;;;;;;;1.20;1.00;;;15.50;98.00;;;;;;5114059;28;20520;-65
2021/07/12 00:05:15;;;;;;;1.20;1.10;;;15.60;98.00;;;;;;5113969;28;20853;-66
2021/07/12 00:07:43;;;;;;;1.53;1.30;;;15.70;98.00;;;;;;5114017;28;20482;-67
2021/07/12 00:10:14;;;;;;;1.30;1.13;;;15.80;98.00;;;;;;5114565;28;20486;-67
2021/07/12 00:12:42;;;;;;;4.77;1.10;;;15.80;98.00;;;;;;5114489;28;20546;-66
2021/07/12 00:15:13;;;;;;;1.20;1.10;;;15.60;98.00;;;;;;5114327;28;20502;-66
2021/07/12 00:17:40;;;;;;;1.20;1.10;;;15.60;98.00;;;;;;5114302;28;20451;-66
2021/07/12 00:20:11;;;;;;;1.20;1.10;;;15.50;98.00;;;;;;5114508;28;20483;-66
2021/07/12 00:22:39;;;;;;;1.50;1.17;;;15.40;98.00;;;;;;5114222;28;20524;-67
2021/07/12 00:25:09;;;;;;;1.20;1.20;;;15.40;98.00;;;;;;5114177;28;20524;-66
2021/07/12 00:27:36;;;;;;;2.53;1.10;;;15.50;98.00;;;;;;5113052;28;20486;-65
2021/07/12 00:30:07;;;;;;;1.50;1.50;;;15.40;98.00;;;;;;5114338;28;20877;-65
2021/07/12 00:32:35;;;;;;;1.33;1.20;;;15.30;98.00;;;;;;5114108;27;20501;-66
2021/07/12 00:35:05;;;;;;;1.20;1.20;;;15.20;98.00;;;;;;5114179;28;20494;-66
2021/07/12 00:37:33;;;;;;;1.20;1.20;;;15.10;98.00;;;;;;5114311;28;20477;-66
2021/07/12 00:40:00;;;;;;;1.30;1.30;;;15.10;98.00;;;;;;5114172;28;20494;-66
2021/07/12 00:42:28;;;;;;;1.90;1.30;;;15.10;98.00;;;;;;5114026;28;20459;-67
2021/07/12 00:44:55;;;;;;;1.20;1.10;;;15.10;98.00;;;;;;5114211;28;20992;-65
2021/07/12 00:47:23;;;;;;;1.30;1.00;;;15.10;98.00;;;;;;5114119;28;20896;-66
2021/07/12 00:49:51;;;;;;;1.40;1.30;;;15.10;98.00;;;;;;5113982;28;20491;-65
2021/07/12 00:52:18;;;;;;;5.43;1.80;;;15.10;98.00;;;;;;5114077;28;20459;-67
2021/07/12 00:54:47;;;;;;;1.30;1.10;;;15.10;98.00;;;;;;5113936;28;20535;-65
2021/07/12 00:57:15;;;;;;;1.20;1.20;;;15.00;98.00;;;;;;5113738;28;20542;-66
2021/07/12 00:59:43;;;;;;;1.20;1.13;;;15.00;98.00;;;;;;5113595;28;20823;-65
2021/07/12 01:02:09;;;;;;;1.40;1.03;;;15.10;98.00;;;;;;5113468;28;20865;-66
2021/07/12 01:04:37;;;;;;;1.70;1.37;;;15.10;98.00;;;;;;5113230;28;20483;-67
2021/07/12 01:07:10;;;;;;;1.93;1.43;;;15.00;98.00;;;;;;5113227;28;20489;-65
2021/07/12 01:09:37;;;;;;;2.07;1.30;;;15.00;98.00;;;;;;5113503;28;20461;-65
2021/07/12 01:12:19;;;;;;;1.73;1.27;;;15.00;98.00;;;;;;5113389;28;20459;-66
2021/07/12 01:14:51;;;;;;;1.30;1.20;;;15.10;98.00;;;;;;5113198;28;20539;-66
2021/07/12 01:17:27;;;;;;;1.20;1.00;;;15.20;98.00;;;;;;5113080;28;20515;-65
2021/07/12 01:20:23;;;;;;;1.43;1.20;;;15.10;98.00;;;;;;5113347;28;20450;-65
2021/07/12 01:23:13;;;;;;;2.13;1.57;;;15.10;98.00;;;;;;5090561;27;20459;-67
2021/07/12 01:26:18;;;;;;;2.07;1.20;;;14.90;98.00;;;;;;5113228;28;20703;-66
2021/07/12 01:29:14;;;;;;;1.33;1.17;;;14.80;98.00;;;;;;5113129;28;20507;-66
2021/07/12 01:32:30;;;;;;;1.20;1.20;;;14.70;98.00;;;;;;5112963;28;20459;-66
2021/07/12 01:35:19;;;;;;;2.00;1.20;;;14.60;98.00;;;;;;5113046;28;20900;-66
2021/07/12 01:37:59;;;;;;;1.20;1.00;;;14.50;98.00;;;;;;5112933;28;20443;-67
2021/07/12 01:40:54;;;;;;;1.20;1.00;;;14.50;98.00;;;;;;5112897;28;20486;-66
2021/07/12 01:43:31;;;;;;;1.30;1.10;;;14.40;98.00;;;;;;5112256;28;20456;-65
2021/07/12 01:46:05;;;;;;;1.27;1.10;;;14.40;98.00;;;;;;5112808;28;20490;-66
2021/07/12 01:48:42;;;;;;;1.20;1.00;;;14.50;98.00;;;;;;5111515;28;20465;-66
2021/07/12 01:51:16;;;;;;;1.23;1.13;;;14.70;98.00;;;;;;5112908;28;20799;-66
2021/07/12 01:53:49;;;;;;;1.80;1.30;;;14.80;98.00;;;;;;5112599;28;20473;-66
2021/07/12 01:56:21;;;;;;;1.30;1.10;;;14.70;98.00;;;;;;5112778;28;20455;-66
2021/07/12 01:58:55;;;;;;;1.20;1.10;;;14.50;98.00;;;;;;5112789;28;20481;-67
2021/07/12 02:01:23;;;;;;;4.17;1.40;;;14.40;98.00;;;;;;5112642;28;20505;-66
2021/07/12 02:03:52;;;;;;;1.20;1.00;;;14.40;98.00;;;;;;5112780;28;20460;-66
2021/07/12 02:06:22;;;;;;;1.43;1.20;;;14.40;98.00;;;;;;5112680;28;20507;-67
2021/07/12 02:08:52;;;;;;;1.20;1.07;;;14.40;98.00;;;;;;5112146;28;20492;-66
2021/07/12 02:11:20;;;;;;;1.60;1.33;;;14.30;98.00;;;;;;5112805;28;20461;-66
2021/07/12 02:13:52;;;;;;;1.40;1.30;;;14.30;98.00;;;;;;5112424;28;20481;-67
2021/07/12 02:16:21;;;;;;;1.30;1.20;;;14.30;98.00;;;;;;5112587;28;20510;-68
2021/07/12 02:18:50;;;;;;;1.20;1.00;;;14.40;98.00;;;;;;5112797;28;21274;-67
2021/07/12 02:21:18;;;;;;;1.63;1.57;;;14.40;98.00;;;;;;5112670;28;20514;-67
2021/07/12 02:23:48;;;;;;;1.20;1.10;;;14.40;98.00;;;;;;5112199;28;20509;-67
2021/07/12 02:26:16;;;;;;;1.30;1.13;;;14.40;98.00;;;;;;5112196;28;20493;-67
2021/07/12 02:28:47;;;;;;;1.73;1.30;;;14.40;98.00;;;;;;5112214;28;20802;-67
2021/07/12 02:31:15;;;;;;;1.90;1.50;;;14.40;98.00;;;;;;5112072;28;20523;-67
2021/07/12 02:33:43;;;;;;;2.40;1.40;;;14.30;98.00;;;;;;5111786;28;21090;-66
2021/07/12 02:36:11;;;;;;;1.30;1.30;;;14.20;98.00;;;;;;5112098;28;20481;-68
2021/07/12 02:38:41;;;;;;;1.30;1.10;;;14.30;98.00;;;;;;5112013;28;20458;-67
2021/07/12 02:41:14;;;;;;;1.20;0.90;;;14.30;98.00;;;;;;5111939;28;20460;-67
2021/07/12 02:43:42;;;;;;;1.50;1.20;;;14.50;98.00;;;;;;5111850;28;20450;-67
2021/07/12 02:46:11;;;;;;;1.20;1.10;;;14.30;98.00;;;;;;5112184;28;20458;-67
2021/07/12 02:48:39;;;;;;;1.93;1.13;;;14.10;98.00;;;;;;5111858;28;21249;-69
2021/07/12 02:51:12;;;;;;;2.23;1.10;;;14.10;98.00;;;;;;5111963;28;20543;-67
2021/07/12 02:53:45;;;;;;;2.53;2.03;;;14.00;98.00;;;;;;5111772;28;21015;-68
2021/07/12 02:56:14;;;;;;;4.23;1.20;;;14.10;98.00;;;;;;5111910;28;20489;-69
2021/07/12 02:58:41;;;;;;;1.47;1.13;;;14.20;98.00;;;;;;5111707;28;20498;-69
2021/07/12 03:01:08;;;;;;;1.20;1.10;;;14.10;98.00;;;;;;5111827;28;20490;-68
2021/07/12 03:03:35;;;;;;;1.30;1.20;;;14.10;98.00;;;;;;5111942;28;20559;-67
2021/07/12 03:06:11;;;;;;;1.20;1.07;;;14.00;98.00;;;;;;5111899;28;20531;-67
2021/07/12 03:08:45;;;;;;;1.30;1.00;;;13.90;98.00;;;;;;5111727;28;20465;-68
2021/07/12 03:11:17;;;;;;;1.20;1.10;;;13.90;98.00;;;;;;5111798;28;20491;-67
2021/07/12 03:13:54;;;;;;;1.23;1.10;;;13.90;98.00;;;;;;5111757;28;20553;-67
2021/07/12 03:16:21;;;;;;;1.60;1.23;;;13.90;98.00;;;;;;5111882;28;20529;-68
2021/07/12 03:18:53;;;;;;;1.20;1.10;;;14.00;98.00;;;;;;5111872;28;20496;-68
2021/07/12 03:21:23;;;;;;;2.53;1.20;;;14.20;98.00;;;;;;5113456;28;20457;-67
2021/07/12 03:23:51;;;;;;;1.20;1.10;;;14.30;98.00;;;;;;5115480;28;20534;-68
2021/07/12 03:26:23;;;;;;;1.20;1.10;;;14.40;98.00;;;;;;5115587;28;20552;-68
2021/07/12 03:28:55;;;;;;;1.20;1.13;;;14.40;98.00;;;;;;5115603;28;20500;-68
2021/07/12 03:31:25;;;;;;;1.20;1.10;;;14.20;98.00;;;;;;5115413;28;20494;-69
2021/07/12 03:33:55;;;;;;;1.20;1.00;;;14.00;98.00;;;;;;5115497;28;20484;-68
2021/07/12 03:36:22;;;;;;;1.20;1.10;;;13.90;98.00;;;;;;5114433;28;20517;-67
2021/07/12 03:38:51;;;;;;;2.20;1.30;;;13.80;98.00;;;;;;5115559;28;20449;-67
2021/07/12 03:41:18;;;;;;;1.50;1.23;;;13.90;98.00;;;;;;5115482;28;20496;-68
2021/07/12 03:43:47;;;;;;;1.40;1.10;;;13.90;98.00;;;;;;5115184;28;20481;-67
2021/07/12 03:46:14;;;;;;;1.20;1.00;;;14.10;98.00;;;;;;5114967;28;20518;-68
2021/07/12 03:48:42;;;;;;;1.70;1.40;;;14.20;98.00;;;;;;5115043;28;20493;-67
2021/07/12 03:51:12;;;;;;;1.20;1.10;;;14.30;98.00;;;;;;5114940;28;20482;-66
2021/07/12 03:53:40;;;;;;;1.20;1.03;;;14.20;98.00;;;;;;5114707;28;21189;-67
2021/07/12 03:56:07;;;;;;;1.70;1.17;;;14.00;98.00;;;;;;5114916;28;20481;-67
2021/07/12 03:58:34;;;;;;;1.70;1.20;;;14.00;98.00;;;;;;5114688;28;20458;-68
2021/07/12 04:01:03;;;;;;;1.33;1.07;;;14.00;98.00;;;;;;5114846;28;20461;-66
2021/07/12 04:03:30;;;;;;;1.50;1.23;;;14.00;98.00;;;;;;5114662;28;20492;-68
2021/07/12 04:05:59;;;;;;;1.27;1.20;;;14.00;98.00;;;;;;5114752;28;20511;-67
2021/07/12 04:08:26;;;;;;;4.57;1.50;;;14.00;98.00;;;;;;5114604;28;20460;-68
2021/07/12 04:10:53;;;;;;;1.87;1.10;;;13.90;98.00;;;;;;5114628;28;20504;-68
2021/07/12 04:13:20;;;;;;;1.50;1.13;;;14.00;98.00;;;;;;5114604;28;20449;-67
2021/07/12 04:15:47;;;;;;;1.40;1.27;;;14.10;98.00;;;;;;5114547;28;20512;-68
2021/07/12 04:18:18;;;;;;;1.50;1.17;;;14.20;98.00;;;;;;5114679;28;20955;-67
2021/07/12 04:20:45;;;;;;;1.20;1.10;;;14.30;98.00;;;;;;5114400;28;20452;-68
2021/07/12 04:23:12;;;;;;;1.90;1.30;;;14.20;98.00;;;;;;5114254;28;20490;-67
2021/07/12 04:25:40;;;;;;;1.20;1.07;;;14.20;98.00;;;;;;5114361;28;20446;-67
2021/07/12 04:28:07;;;;;;;1.73;1.30;;;14.10;98.00;;;;;;5114431;28;20497;-68
2021/07/12 04:30:35;;;;;;;1.20;1.00;;;14.10;98.00;;;;;;5114282;28;20502;-67
2021/07/12 04:33:07;;;;;;;1.47;1.30;;;14.00;98.00;;;;;;5113871;28;20446;-68
2021/07/12 04:35:35;;;;;;;1.70;1.37;;;14.00;98.00;;;;;;5114164;27;20492;-68
2021/07/12 04:38:05;;;;;;;1.50;1.27;;;13.90;98.00;;;;;;5114267;28;20482;-68
2021/07/12 04:40:32;;;;;;;1.50;1.30;;;13.90;98.00;;;;;;5114134;28;20492;-68
2021/07/12 04:42:59;;;;;;;1.20;1.00;;;13.90;98.00;;;;;;5114100;28;20454;-68
2021/07/12 04:45:27;;;;;;;2.13;1.40;;;13.90;98.00;;;;;;5114090;28;20865;-69
2021/07/12 04:47:54;;;;;;;1.20;1.07;;;14.00;98.00;;;;;;5114074;28;20479;-68
2021/07/12 04:50:22;;;;;;;1.30;1.20;;;14.20;98.00;;;;;;5114087;28;20477;-67
2021/07/12 04:52:50;;;;;;;1.37;1.13;;;14.30;98.00;;;;;;5113940;28;20458;-70
2021/07/12 04:55:17;;;;;;;1.97;1.40;;;14.20;98.00;;;;;;5112781;28;20484;-68
2021/07/12 04:57:45;;;;;;;1.50;1.40;;;14.40;98.00;;;;;;5114094;28;20510;-69
2021/07/12 05:00:16;;;;;;;1.20;1.00;;;14.40;98.00;;;;;;5113910;28;20503;-69
2021/07/12 05:02:43;;;;;;;1.20;1.13;;;14.40;98.00;;;;;;5112739;28;20468;-69
2021/07/12 05:05:12;;;;;;;1.20;1.00;;;14.50;98.00;;;;;;5113589;28;20452;-67
2021/07/12 05:07:40;;;;;;;1.20;1.00;;;14.70;98.00;;;;;;5113578;28;20883;-67
2021/07/12 05:10:10;;;;;;;1.20;1.13;;;14.70;98.00;;;;;;5113556;28;20952;-67
2021/07/12 05:12:39;;;;;;;1.40;1.13;;;14.80;98.00;;;;;;5113493;28;20507;-67
2021/07/12 05:15:08;;;;;;;1.23;1.17;;;14.90;98.00;;;;;;5113180;28;20490;-66
2021/07/12 05:17:38;;;;;;;1.47;1.13;;;15.10;98.00;;;;;;5113455;28;20497;-68
2021/07/12 05:20:06;;;;;;;1.40;1.23;;;15.10;98.00;;;;;;5113158;28;20518;-67
2021/07/12 05:22:33;;;;;;;1.50;1.30;;;15.40;98.00;;;;;;5113083;28;20497;-68
2021/07/12 05:25:01;;;;;;;1.30;1.20;;;15.40;98.00;;;;;;5112889;28;20450;-67
2021/07/12 05:27:30;;;;;;;1.80;1.47;;;15.50;98.00;;;;;;5113340;28;20462;-68
2021/07/12 05:29:57;;;;;;;1.87;1.10;;;15.40;98.00;;;;;;5111866;28;20824;-68
2021/07/12 05:32:24;;;;;;;2.27;1.20;;;15.40;98.00;;;;;;5113015;28;20481;-68
2021/07/12 05:34:51;;;;;;;1.30;1.20;;;15.50;98.00;;;;;;5113084;28;20538;-68
2021/07/12 05:37:19;;;;;;;1.20;1.10;;;15.50;98.00;;;;;;5113049;28;20462;-69
2021/07/12 05:39:46;;;;;;;1.20;1.10;;;15.60;98.00;;;;;;5111682;28;20445;-68
2021/07/12 05:42:13;;;;;;;1.63;1.10;;;15.50;98.00;;;;;;5113056;28;20519;-70
2021/07/12 05:44:42;;;;;;;1.20;1.10;;;15.60;98.00;;;;;;5112121;28;20455;-68
2021/07/12 05:47:09;;;;;;;1.23;1.17;;;15.80;98.00;;;;;;5112885;28;20466;-68
2021/07/12 05:49:36;;;;;;;1.67;1.60;;;15.80;98.00;;;;;;5112709;28;21005;-68
2021/07/12 05:52:03;;;;;;;1.20;1.10;;;15.80;98.00;;;;;;5112920;28;21009;-69
2021/07/12 05:54:30;;;;;;;1.20;1.13;;;15.80;98.00;;;;;;5112634;28;20507;-69
2021/07/12 05:56:57;;;;;;;1.60;1.20;;;15.90;98.00;;;;;;5112686;28;20494;-69
2021/07/12 05:59:25;;;;;;;1.20;1.00;;;16.10;98.00;;;;;;5112550;28;20454;-70
2021/07/12 06:01:53;;;;;;;1.20;1.10;;;16.10;98.00;;;;;;5112804;28;20519;-69
2021/07/12 06:04:22;;;;;;;1.20;1.00;;;16.20;98.00;;;;;;5112518;28;20494;-69
2021/07/12 06:06:49;;;;;;;1.20;1.10;;;16.40;98.00;;;;;;5112623;28;20504;-69
2021/07/12 06:09:16;;;;;;;1.20;1.00;;;16.50;98.00;;;;;;5112541;28;20490;-69
2021/07/12 06:11:43;;;;;;;1.30;1.10;;;16.60;98.00;;;;;;5112548;28;20461;-68
2021/07/12 06:14:10;;;;;;;2.70;1.20;;;16.70;98.00;;;;;;5112382;28;20486;-68
2021/07/12 06:16:37;;;;;;;4.20;1.20;;;16.80;98.00;;;;;;5111500;28;20487;-68
2021/07/12 06:19:06;;;;;;;1.20;1.00;;;17.00;98.00;;;;;;5112300;28;20494;-69
2021/07/12 06:21:33;;;;;;;1.40;1.33;;;17.10;98.00;;;;;;5112180;28;20515;-67
2021/07/12 06:24:00;;;;;;;1.20;1.10;;;17.40;98.00;;;;;;5112029;28;20463;-68
2021/07/12 06:26:27;;;;;;;3.37;1.47;;;17.60;98.00;;;;;;5112183;28;20454;-67
2021/07/12 06:28:54;;;;;;;1.30;1.17;;;17.70;98.00;;;;;;5112191;28;20516;-69
2021/07/12 06:31:22;;;;;;;1.20;1.20;;;17.80;98.00;;;;;;5112106;28;20455;-68
2021/07/12 06:33:50;;;;;;;1.70;1.50;;;17.90;98.00;;;;;;5111908;28;20512;-67
2021/07/12 06:36:18;;;;;;;2.60;1.40;;;18.00;98.00;;;;;;5112093;28;20479;-67
2021/07/12 06:38:46;;;;;;;1.30;1.30;;;18.00;98.00;;;;;;5097249;28;20962;-68
2021/07/12 06:41:13;;;;;;;1.50;1.40;;;18.20;98.00;;;;;;5101688;28;20470;-66
2021/07/12 06:43:40;;;;;;;1.20;1.00;;;18.30;98.00;;;;;;5099973;28;20517;-68
2021/07/12 06:46:07;;;;;;;1.40;1.40;;;18.40;98.00;;;;;;5098828;28;20450;-67
2021/07/12 06:48:34;;;;;;;1.30;1.20;;;18.50;98.00;;;;;;5104420;28;20469;-67
2021/07/12 06:51:01;;;;;;;1.63;1.30;;;18.80;98.00;;;;;;5089540;28;20456;-67
2021/07/12 06:53:30;;;;;;;1.80;1.30;;;19.10;98.00;;;;;;5089355;28;20459;-68
2021/07/12 06:55:57;;;;;;;1.20;1.00;;;19.30;98.00;;;;;;5100329;28;20572;-67
2021/07/12 06:58:25;;;;;;;1.43;1.30;;;19.50;98.00;;;;;;5102927;28;20460;-68
2021/07/12 07:00:52;;;;;;;1.20;1.00;;;19.60;98.00;;;;;;5102577;28;20486;-67
2021/07/12 07:03:19;;;;;;;1.30;1.27;;;19.60;98.00;;;;;;5110202;28;20486;-66
2021/07/12 07:05:46;;;;;;;1.67;1.40;;;19.70;98.00;;;;;;5111297;28;20487;-67
2021/07/12 07:08:13;;;;;;;1.20;1.10;;;20.00;98.00;;;;;;5095483;28;20475;-66
2021/07/12 07:10:41;;;;;;;1.30;1.20;;;20.20;98.00;;;;;;5100363;28;20504;-66
2021/07/12 07:13:09;;;;;;;1.60;1.20;;;20.40;98.00;;;;;;5102105;28;20547;-67
2021/07/12 07:15:36;;;;;;;1.60;1.20;;;20.70;98.00;;;;;;5104714;28;20492;-67
2021/07/12 07:18:03;;;;;;;1.20;1.00;;;21.00;98.00;;;;;;5108601;28;20455;-67
2021/07/12 07:20:30;;;;;;;1.20;1.10;;;21.20;98.00;;;;;;5111441;28;20484;-66
2021/07/12 07:22:57;;;;;;;1.20;1.07;;;21.30;98.00;;;;;;5110634;28;20516;-67
2021/07/12 07:25:24;;;;;;;1.20;1.20;;;21.30;98.00;;;;;;5095662;28;20482;-67
2021/07/12 07:27:53;;;;;;;1.47;1.27;;;21.40;98.00;;;;;;5099993;28;20487;-67
2021/07/12 07:30:21;;;;;;;1.30;1.10;;;21.40;98.00;;;;;;5096938;28;21017;-67
2021/07/12 07:32:49;;;;;;;1.50;1.40;;;21.50;98.00;;;;;;5092950;28;20487;-66
2021/07/12 07:35:17;;;;;;;1.37;1.03;;;21.40;98.00;;;;;;5092435;28;20574;-66
2021/07/12 07:37:46;;;;;;;1.20;1.10;;;21.40;98.00;;;;;;5093400;28;20453;-65
2021/07/12 07:40:18;;;;;;;1.20;1.10;;;21.50;98.00;;;;;;5100280;28;20827;-68
2021/07/12 07:42:46;;;;;;;1.50;1.20;;;21.60;98.00;;;;;;5109894;28;20534;-66
2021/07/12 07:45:15;;;;;;;2.07;1.40;;;21.60;98.00;;;;;;5104369;28;20452;-66
2021/07/12 07:47:44;;;;;;;1.70;1.43;;;21.80;98.00;;;;;;5100765;28;20840;-66
2021/07/12 07:50:13;;;;;;;1.20;1.13;;;21.90;98.00;;;;;;5100633;28;20999;-67
2021/07/12 07:52:40;;;;;;;1.30;1.30;;;21.90;98.00;;;;;;5101307;28;21474;-66
2021/07/12 07:55:09;;;;;;;1.20;1.10;;;21.90;98.00;;;;;;5093604;28;20533;-66
2021/07/12 07:57:36;;;;;;;1.20;1.10;;;21.90;98.00;;;;;;5092722;28;20474;-69
2021/07/12 08:00:07;;;;;;;1.20;1.10;;;22.10;98.00;;;;;;5092474;28;20456;-69
2021/07/12 08:02:35;;;;;;;1.30;1.13;;;22.20;98.00;;;;;;5101286;28;20548;-69
2021/07/12 08:05:06;;;;;;;1.60;1.37;;;22.20;98.00;;;;;;5093893;28;20480;-67
2021/07/12 08:07:34;;;;;;;1.20;1.20;;;22.40;98.00;;;;;;5108789;28;20458;-67
2021/07/12 08:10:01;;;;;;;1.60;1.30;;;22.50;98.00;;;;;;5101951;28;20484;-67
2021/07/12 08:12:34;;;;;;;1.50;1.27;;;22.50;98.00;;;;;;5092173;28;21011;-66
2021/07/12 08:15:01;;;;;;;1.20;1.10;;;22.60;98.00;;;;;;5099801;28;20463;-67
2021/07/12 08:17:30;;;;;;;1.20;1.10;;;22.70;98.00;;;;;;5093441;28;20463;-66
2021/07/12 08:19:59;;;;;;;1.50;1.40;;;22.80;98.00;;;;;;5108942;28;20455;-67
2021/07/12 08:22:28;;;;;;;1.33;1.13;;;22.90;98.00;;;;;;5092573;28;20452;-66
2021/07/12 08:24:55;;;;;;;1.80;1.20;;;23.00;98.00;;;;;;5101987;28;20464;-68
2021/07/12 08:27:22;;;;;;;1.40;1.33;;;23.10;98.00;;;;;;5092272;28;20951;-68
2021/07/12 08:29:49;;;;;;;1.70;1.20;;;23.10;98.00;;;;;;5087802;28;21015;-66
2021/07/12 08:32:16;;;;;;;1.30;1.20;;;23.20;98.00;;;;;;5092388;28;20484;-68
2021/07/12 08:34:43;;;;;;;1.30;1.27;;;23.40;98.00;;;;;;5100404;28;20448;-71
2021/07/12 08:37:12;;;;;;;1.27;1.17;;;23.40;98.00;;;;;;5097633;28;20487;-69
2021/07/12 08:39:42;;;;;;;1.20;1.17;;;23.50;98.00;;;;;;5094259;28;20552;-69
2021/07/12 08:42:11;;;;;;;1.33;1.20;;;23.60;98.00;;;;;;5107466;28;20455;-69
2021/07/12 08:44:39;;;;;;;1.20;1.10;;;23.60;98.00;;;;;;5099687;28;20451;-69
2021/07/12 08:47:08;;;;;;;1.50;1.33;;;23.70;98.00;;;;;;5100345;28;21030;-71
2021/07/12 08:49:35;;;;;;;1.70;1.30;;;23.80;98.00;;;;;;5105649;28;21119;-71
2021/07/12 08:52:03;;;;;;;1.60;1.30;;;23.90;98.00;;;;;;5101119;28;20459;-71
2021/07/12 08:54:31;;;;;;;1.57;1.30;;;24.00;98.00;;;;;;5100890;28;20479;-71
2021/07/12 08:56:58;;;;;;;1.50;1.47;;;24.10;98.00;;;;;;5096215;28;21009;-70
2021/07/12 08:59:28;;;;;;;1.23;1.20;;;24.10;98.00;;;;;;5099143;28;20459;-70
2021/07/12 09:02:09;;;;;;;1.67;1.57;;;24.20;97.30;;;;;;5093466;28;20542;-70
2021/07/12 09:04:37;;;;;;;1.30;1.20;;;24.30;97.20;;;;;;5073077;28;20455;-69
2021/07/12 09:07:06;;;;;;;1.20;1.10;;;24.30;98.00;;;;;;5100370;28;20499;-70
2021/07/12 09:09:35;;;;;;;1.20;1.13;;;24.40;97.20;;;;;;5100751;28;20868;-71
2021/07/12 09:12:15;;;;;;;1.83;1.50;;;24.60;96.90;;;;;;5100189;28;20506;-74
2021/07/12 09:15:00;;;;;;;1.20;1.10;;;24.60;96.10;;;;;;5082665;28;21401;-71
2021/07/12 09:17:31;;;;;;;1.67;1.30;;;24.80;95.80;;;;;;5108983;28;20485;-70
2021/07/12 09:20:11;;;;;;;1.30;1.27;;;24.90;95.90;;;;;;5099489;28;20460;-70
2021/07/12 09:22:40;;;;;;;1.30;1.30;;;25.00;94.10;;;;;;5098860;28;20545;-71
2021/07/12 09:25:14;;;;;;;1.30;1.20;;;25.10;93.50;;;;;;5095505;28;20549;-68
2021/07/12 09:27:43;;;;;;;1.40;1.23;;;25.20;95.30;;;;;;5099557;28;21140;-71
2021/07/12 09:30:13;;;;;;;1.70;1.43;;;25.40;94.50;;;;;;5091527;28;20528;-71
2021/07/12 09:32:42;;;;;;;1.30;1.20;;;25.40;92.60;;;;;;5090945;28;20460;-71
2021/07/12 09:35:13;;;;;;;1.60;1.20;;;25.40;92.90;;;;;;5096747;28;21026;-71
2021/07/12 09:37:42;;;;;;;1.40;1.20;;;25.50;93.00;;;;;;5093278;28;20495;-72
2021/07/12 09:40:12;;;;;;;1.50;1.27;;;25.70;92.80;;;;;;5099698;28;20483;-70
2021/07/12 09:42:43;;;;;;;2.80;1.20;;;25.70;92.00;;;;;;5097147;28;20463;-69
2021/07/12 09:45:13;;;;;;;1.30;1.13;;;25.80;91.50;;;;;;5092442;28;20463;-69
2021/07/12 09:47:44;;;;;;;1.30;1.30;;;25.90;90.60;;;;;;5091405;28;20524;-71
2021/07/12 09:50:12;;;;;;;1.30;1.20;;;26.00;91.90;;;;;;5105588;28;20895;-70
2021/07/12 09:52:41;;;;;;;1.33;1.27;;;26.00;90.70;;;;;;5099640;28;20467;-70
2021/07/12 09:55:09;;;;;;;2.20;1.40;;;26.20;92.60;;;;;;5090400;28;21165;-70
2021/07/12 09:57:36;;;;;;;1.30;1.20;;;26.30;89.60;;;;;;5094549;28;20487;-70
2021/07/12 10:00:08;;;;;;;1.60;1.43;;;26.50;88.60;;;;;;5098098;28;20859;-71
2021/07/12 10:02:40;;;;;;;1.27;1.20;;;26.40;89.30;;;;;;5098812;28;20463;-69
2021/07/12 10:05:13;;;;;;;1.20;1.20;;;26.60;89.70;;;;;;5098654;28;20534;-69
2021/07/12 10:07:42;;;;;;;1.60;1.27;;;26.60;89.50;;;;;;5096420;28;20863;-72
2021/07/12 10:10:14;;;;;;;1.27;1.17;;;26.70;89.90;;;;;;5099146;28;20455;-69
2021/07/12 10:12:42;;;;;;;1.60;1.50;;;26.80;88.50;;;;;;5099557;28;20861;-71
2021/07/12 10:15:13;;;;;;;1.30;1.20;;;26.90;88.20;;;;;;5094876;28;20554;-71
2021/07/12 10:17:41;;;;;;;1.20;1.20;;;27.00;87.50;;;;;;5099298;28;20559;-71
2021/07/12 10:20:09;;;;;;;3.07;1.37;;;27.00;90.00;;;;;;5099704;28;20552;-71
2021/07/12 10:22:39;;;;;;;1.67;1.40;;;27.10;88.30;;;;;;5087260;28;20951;-72
2021/07/12 10:25:09;;;;;;;1.57;1.30;;;27.20;86.90;;;;;;5082370;28;20470;-70
2021/07/12 10:27:48;;;;;;;1.53;1.30;;;27.20;87.30;;;;;;5091036;28;21006;-73
2021/07/12 10:30:26;;;;;;;1.30;1.20;;;27.20;86.10;;;;;;5089816;28;20463;-72
2021/07/12 10:33:00;;;;;;;1.80;1.33;;;27.30;85.90;;;;;;5093919;28;20451;-70
2021/07/12 10:35:38;;;;;;;1.63;1.37;;;27.40;87.50;;;;;;5095609;28;20457;-70
2021/07/12 10:38:06;;;;;;;1.50;1.37;;;27.50;87.10;;;;;;5086525;28;21022;-70
2021/07/12 10:40:46;;;;;;;1.30;1.20;;;27.70;86.10;;;;;;5096217;28;20933;-72
2021/07/12 10:43:32;;;;;;;1.33;1.27;;;27.80;85.50;;;;;;5091282;28;20455;-71
2021/07/12 10:46:00;;;;;;;1.40;1.20;;;27.90;85.60;;;;;;5098933;28;20885;-72
2021/07/12 10:48:34;;;;;;;2.13;1.43;;;28.00;86.20;;;;;;5091152;28;20456;-71
2021/07/12 10:51:16;;;;;;;1.50;1.40;;;28.10;84.60;;;;;;5105561;28;20485;-72
2021/07/12 10:53:43;;;;;;;1.57;1.23;;;28.00;84.00;;;;;;5092022;28;20516;-70
2021/07/12 10:56:16;;;;;;;1.60;1.50;;;28.00;84.10;;;;;;5107079;28;21129;-70
2021/07/12 10:58:48;;;;;;;1.30;1.20;;;28.10;84.00;;;;;;5107465;28;20552;-71
2021/07/12 11:01:41;;;;;;;1.30;1.20;;;28.20;85.10;;;;;;5095299;28;20873;-71
2021/07/12 11:04:32;;;;;;;1.40;1.30;;;28.40;83.70;;;;;;5090166;28;20462;-73
2021/07/12 11:07:01;;;;;;;1.47;1.33;;;28.40;83.80;;;;;;5107276;28;20856;-73
2021/07/12 11:10:00;;;;;;;1.40;1.33;;;28.50;82.50;;;;;;5099118;28;21023;-73
2021/07/12 11:12:51;;;;;;;1.40;1.20;;;28.60;81.90;;;;;;5088503;28;20495;-69
2021/07/12 11:15:36;;;;;;;1.67;1.40;;;28.60;83.10;;;;;;5099604;28;20835;-73
2021/07/12 11:18:08;;;;;;;1.70;1.30;;;28.80;82.10;;;;;;5089429;28;20936;-72
2021/07/12 11:20:48;;;;;;;1.40;1.33;;;28.90;80.60;;;;;;5098178;28;20546;-71
2021/07/12 11:23:38;;;;;;;1.40;1.30;;;29.00;81.70;;;;;;5081250;28;20467;-72
2021/07/12 11:26:51;;;;;;;1.43;1.30;;;29.10;79.40;;;;;;5102123;28;20454;-73
2021/07/12 11:29:30;;;;;;;1.37;1.27;;;29.30;78.90;;;;;;5099248;28;20483;-74
2021/07/12 11:31:59;;;;;;;1.27;1.17;;;29.40;78.00;;;;;;5093027;28;20924;-73
2021/07/12 11:34:28;;;;;;;1.40;1.30;;;29.50;79.00;;;;;;5096165;28;20478;-74
2021/07/12 11:36:59;;;;;;;1.73;1.37;;;29.50;78.20;;;;;;5098510;28;20552;-73
2021/07/12 11:39:28;;;;;;;2.73;1.70;;;29.30;77.80;;;;;;5100497;28;20532;-72
2021/07/12 11:41:56;;;;;;;1.43;1.43;;;29.00;77.80;;;;;;5106948;28;20477;-73
2021/07/12 11:44:24;;;;;;;1.20;1.10;;;28.80;78.80;;;;;;5108265;28;20467;-71
2021/07/12 11:46:51;;;;;;;1.37;1.27;;;28.60;78.10;;;;;;5102094;28;20461;-71
2021/07/12 11:49:20;;;;;;;1.40;1.30;;;28.30;78.80;;;;;;5101133;28;20532;-73
2021/07/12 11:51:52;;;;;;;1.40;1.30;;;28.30;80.50;;;;;;5092558;28;20511;-72
2021/07/12 11:54:23;;;;;;;1.40;1.30;;;28.40;81.80;;;;;;5100220;28;20459;-74
2021/07/12 11:57:14;;;;;;;1.60;1.47;;;29.00;81.70;;;;;;5102082;28;21021;-71
2021/07/12 11:59:43;;;;;;;1.30;1.30;;;29.50;79.80;;;;;;5093747;28;20487;-72
2021/07/12 12:02:12;;;;;;;1.60;1.50;;;29.80;79.30;;;;;;5093211;28;20452;-70
2021/07/12 12:04:48;;;;;;;1.30;1.30;;;30.10;78.20;;;;;;5094163;28;20558;-72
2021/07/12 12:07:32;;;;;;;1.67;1.47;;;30.30;77.70;;;;;;5094225;28;20524;-71
2021/07/12 12:10:05;;;;;;;2.07;1.70;;;30.50;77.30;;;;;;5094315;28;20501;-72
2021/07/12 12:12:34;;;;;;;1.60;1.50;;;30.50;77.90;;;;;;5093969;28;20509;-72
2021/07/12 12:15:06;;;;;;;1.40;1.20;;;30.70;78.70;;;;;;5093786;28;20464;-73
2021/07/12 12:17:38;;;;;;;2.10;1.70;;;30.70;77.40;;;;;;5094138;28;20996;-73
2021/07/12 12:20:11;;;;;;;1.70;1.40;;;30.50;78.40;;;;;;5094153;28;20543;-72
2021/07/12 12:22:52;;;;;;;1.97;1.40;;;30.10;77.70;;;;;;5093992;28;20954;-72
2021/07/12 12:25:21;;;;;;;1.70;1.47;;;30.00;77.40;;;;;;5094170;28;20487;-73
2021/07/12 12:27:48;;;;;;;1.80;1.47;;;29.80;77.70;;;;;;5092952;28;20535;-72
2021/07/12 12:30:15;;;;;;;1.40;1.40;;;29.70;79.00;;;;;;5094238;28;20908;-73
2021/07/12 12:32:42;;;;;;;2.07;1.40;;;29.70;79.50;;;;;;5094073;28;21125;-72
2021/07/12 12:35:11;;;;;;;1.43;1.40;;;29.90;79.70;;;;;;5092739;28;21179;-73
2021/07/12 12:37:40;;;;;;;1.60;1.50;;;30.10;77.80;;;;;;5093961;28;20549;-73
2021/07/12 12:40:27;;;;;;;1.90;1.63;;;30.20;77.40;;;;;;5094023;28;20459;-72
2021/07/12 12:42:56;;;;;;;2.20;1.57;;;30.60;77.00;;;;;;5093996;28;20463;-73
2021/07/12 12:45:27;;;;;;;2.07;1.60;;;30.80;78.50;;;;;;5093914;28;20923;-73
2021/07/12 12:47:55;;;;;;;1.67;1.50;;;31.00;75.40;;;;;;5093918;28;20460;-73
2021/07/12 12:50:23;;;;;;;2.17;1.70;;;31.20;74.40;;;;;;5093523;28;20476;-72
2021/07/12 12:52:50;;;;;;;1.50;1.30;;;31.40;77.60;;;;;;5092783;28;20785;-72
2021/07/12 12:55:18;;;;;;;2.20;1.60;;;31.50;75.10;;;;;;5093436;28;20941;-73
2021/07/12 12:57:48;;;;;;;2.63;1.70;;;31.60;75.20;;;;;;5093420;28;20487;-73
2021/07/12 13:00:17;;;;;;;3.20;2.07;;;31.50;75.10;;;;;;5093412;28;20550;-73
2021/07/12 13:03:02;;;;;;;1.83;1.40;;;31.80;75.10;;;;;;5093243;28;20483;-71
2021/07/12 13:05:29;;;;;;;1.70;1.40;;;31.90;75.20;;;;;;5092631;28;20462;-72